Time;durP1;ratioP1;P1;durP2;ratioP2;P2;SDS_P1;SDS_P2;PMS_P1;PMS_P2;Temp;Humidity;BMP_temperature;BMP_pressure;BME280_temperature;BME280_humidity;BME280_pressure;Samples;Min_cycle;Max_cycle;Signal;HPM_P1;HPM_P2
2021/06/27 00:09:34;;;;;;;5.65;3.38;;;26.10;31.70;;;;;;20595908;28;20050;-67
2021/06/27 00:19:35;;;;;;;6.55;3.97;;;26.10;31.60;;;;;;20593509;28;20055;-68
2021/06/27 00:29:36;;;;;;;;;;;25.90;31.50;;;;;;20594417;28;20077;-62
2021/06/27 00:39:38;;;;;;;3.13;2.23;;;25.60;31.80;;;;;;20592794;28;19930;-66
2021/06/27 00:49:39;;;;;;;;;;;25.60;31.50;;;;;;20591904;28;20503;-62
2021/06/27 00:59:42;;;;;;;10.47;7.00;;;25.40;32.60;;;;;;20590811;28;20450;-63
2021/06/27 01:09:45;;;;;;;4.10;2.80;;;25.30;32.50;;;;;;20589392;28;20055;-62
2021/06/27 01:19:48;;;;;;;3.25;2.20;;;25.10;32.90;;;;;;20589216;28;20512;-63
2021/06/27 01:29:54;;;;;;;3.88;2.33;;;24.90;32.60;;;;;;20589574;28;20051;-64
2021/06/27 01:40:06;;;;;;;2.22;1.85;;;24.70;32.90;;;;;;20587891;28;20408;-63
2021/06/27 01:50:12;;;;;;;4.95;2.78;;;24.70;32.80;;;;;;20589322;28;20527;-63
2021/06/27 02:00:30;;;;;;;3.55;2.03;;;24.50;34.00;;;;;;20586675;28;20057;-62
2021/06/27 02:10:44;;;;;;;3.17;1.63;;;24.40;33.70;;;;;;20587107;28;20082;-64
2021/06/27 02:21:05;;;;;;;2.78;1.70;;;24.10;33.60;;;;;;20589097;28;20129;-62
2021/06/27 02:31:21;;;;;;;3.30;1.75;;;24.10;33.60;;;;;;20603203;28;20492;-61
2021/06/27 02:41:28;;;;;;;2.92;1.90;;;23.90;33.80;;;;;;20615779;28;20054;-61
2021/06/27 02:51:49;;;;;;;2.88;2.13;;;23.90;34.10;;;;;;20601478;28;20058;-62
2021/06/27 03:02:10;;;;;;;4.10;2.10;;;23.80;34.50;;;;;;20599095;28;20043;-65
2021/06/27 03:12:25;;;;;;;4.60;2.13;;;23.70;35.50;;;;;;20599377;28;20133;-65
2021/06/27 03:22:40;;;;;;;4.50;2.50;;;23.50;36.00;;;;;;20594054;28;20396;-65
2021/06/27 03:32:52;;;;;;;3.05;2.38;;;23.40;36.50;;;;;;20591851;28;20054;-64
2021/06/27 03:43:03;;;;;;;3.53;2.20;;;23.20;36.90;;;;;;20592278;28;20058;-66
2021/06/27 03:53:13;;;;;;;4.63;2.65;;;23.10;37.10;;;;;;20592086;28;20102;-62
2021/06/27 04:03:17;;;;;;;3.17;2.38;;;23.00;36.90;;;;;;20591620;28;20059;-61
2021/06/27 04:13:28;;;;;;;3.28;2.47;;;22.90;37.20;;;;;;20591685;28;20249;-62
2021/06/27 04:23:35;;;;;;;3.65;2.30;;;22.80;38.10;;;;;;20548852;28;1302677;-63
2021/06/27 04:33:42;;;;;;;4.65;2.80;;;22.60;38.90;;;;;;20592608;28;20050;-63
2021/06/27 04:43:48;;;;;;;3.72;2.58;;;22.50;39.10;;;;;;20591284;28;20061;-65
2021/06/27 04:54:02;;;;;;;5.00;2.90;;;22.40;39.10;;;;;;20593040;28;20051;-63
2021/06/27 05:04:06;;;;;;;4.43;2.95;;;22.30;39.10;;;;;;20591471;28;20158;-63
2021/06/27 05:14:12;;;;;;;5.38;3.20;;;22.30;39.60;;;;;;20590150;28;20130;-64
2021/06/27 05:24:19;;;;;;;4.75;3.60;;;22.30;39.50;;;;;;20589166;28;20055;-64
2021/06/27 05:34:24;;;;;;;5.13;2.90;;;22.30;39.90;;;;;;20588132;28;20047;-66
2021/06/27 05:44:28;;;;;;;6.45;3.40;;;22.20;39.30;;;;;;20602698;28;20046;-62
2021/06/27 05:54:32;;;;;;;4.65;2.95;;;22.30;38.90;;;;;;20588424;28;20073;-65
2021/06/27 06:04:34;;;;;;;;;;;22.20;39.10;;;;;;20587310;28;20149;-63
2021/06/27 06:14:38;;;;;;;4.63;2.60;;;22.20;38.70;;;;;;20586625;28;19974;-61
2021/06/27 06:24:42;;;;;;;5.20;2.90;;;22.50;38.30;;;;;;20587072;28;20054;-62
2021/06/27 06:34:47;;;;;;;8.68;4.00;;;22.70;37.60;;;;;;20586412;28;20051;-65
2021/06/27 06:44:49;;;;;;;5.07;2.70;;;22.70;38.10;;;;;;20586760;28;20082;-62
2021/06/27 06:54:52;;;;;;;3.72;2.30;;;22.70;38.00;;;;;;20585600;28;20042;-62
2021/06/27 07:04:55;;;;;;;;;;;23.10;36.20;;;;;;20585745;28;20138;-62
2021/06/27 07:14:58;;;;;;;4.80;2.30;;;24.10;35.20;;;;;;20597288;28;20008;-66
2021/06/27 07:25:04;;;;;;;3.15;1.95;;;25.00;31.80;;;;;;20598354;28;20495;-67
2021/06/27 07:35:07;;;;;;;3.88;2.05;;;25.80;30.80;;;;;;20597842;28;20054;-64
2021/06/27 07:45:09;;;;;;;5.82;3.67;;;26.40;29.20;;;;;;20596522;28;20141;-65
2021/06/27 07:55:12;;;;;;;3.03;1.75;;;26.90;28.50;;;;;;20596514;28;20415;-64
2021/06/27 08:05:16;;;;;;;4.93;2.20;;;27.40;27.20;;;;;;20595859;28;20051;-63
2021/06/27 08:15:20;;;;;;;4.93;2.00;;;27.70;26.70;;;;;;20594656;28;20078;-64
2021/06/27 08:25:24;;;;;;;4.28;3.00;;;28.20;26.50;;;;;;20592556;28;20050;-64
2021/06/27 08:35:29;;;;;;;4.35;1.67;;;28.60;26.00;;;;;;20592253;28;20069;-64
2021/06/27 08:45:32;;;;;;;3.67;1.70;;;28.60;25.20;;;;;;20594367;28;20066;-63
2021/06/27 08:55:34;;;;;;;2.20;1.58;;;28.90;24.70;;;;;;20593905;28;20074;-63
2021/06/27 09:05:38;;;;;;;3.22;1.50;;;29.30;24.80;;;;;;20594571;28;20047;-64
2021/06/27 09:15:53;;;;;;;3.67;1.70;;;29.30;24.40;;;;;;20589604;28;20057;-66
2021/06/27 09:25:58;;;;;;;3.42;1.70;;;29.10;24.80;;;;;;20589973;28;20062;-65
2021/06/27 09:36:04;;;;;;;2.90;1.65;;;29.40;24.60;;;;;;20587767;28;20055;-63
2021/06/27 09:46:12;;;;;;;3.08;2.30;;;29.60;23.90;;;;;;20587641;28;20051;-67
2021/06/27 09:56:16;;;;;;;4.10;1.55;;;29.80;23.20;;;;;;20585059;28;20047;-64
2021/06/27 10:06:24;;;;;;;2.30;0.90;;;29.70;22.10;;;;;;20601052;28;20514;-64
2021/06/27 10:16:33;;;;;;;2.85;1.35;;;29.90;20.80;;;;;;20587282;28;20051;-67
2021/06/27 10:26:36;;;;;;;2.67;1.60;;;29.80;20.80;;;;;;20586844;28;20066;-66
2021/06/27 10:36:43;;;;;;;2.95;1.58;;;29.80;21.60;;;;;;20586699;28;20113;-65
2021/06/27 10:46:48;;;;;;;2.92;1.27;;;29.80;21.10;;;;;;20594815;28;20090;-63
2021/06/27 10:57:04;;;;;;;3.00;1.00;;;29.70;20.20;;;;;;20600468;28;20055;-64
2021/06/27 11:07:05;;;;;;;3.70;1.50;;;29.80;19.20;;;;;;20599431;28;20082;-63
2021/06/27 11:17:08;;;;;;;6.93;1.25;;;29.70;19.30;;;;;;20626658;28;20057;-62
2021/06/27 11:27:27;;;;;;;2.72;1.20;;;29.90;19.00;;;;;;20678674;28;20082;-67
2021/06/27 11:37:36;;;;;;;1.73;1.00;;;29.90;20.50;;;;;;20677957;28;20519;-66
2021/06/27 11:47:40;;;;;;;3.30;1.52;;;29.80;19.60;;;;;;20676618;28;20392;-64
2021/06/27 11:57:43;;;;;;;5.00;1.63;;;29.80;20.50;;;;;;20675926;28;20577;-65
2021/06/27 12:07:46;;;;;;;4.32;1.63;;;29.90;20.50;;;;;;20675588;28;20050;-64
2021/06/27 12:18:01;;;;;;;9.25;1.70;;;30.00;20.80;;;;;;20675361;28;20058;-65
2021/06/27 12:28:07;;;;;;;2.95;1.00;;;30.00;21.00;;;;;;20656473;28;20085;-62
2021/06/27 12:38:12;;;;;;;3.10;2.05;;;30.00;20.50;;;;;;20673358;28;20477;-67
2021/06/27 12:48:14;;;;;;;2.35;1.15;;;30.20;21.00;;;;;;20672338;28;20054;-66
2021/06/27 12:58:15;;;;;;;3.05;0.80;;;30.30;22.00;;;;;;20671408;28;20050;-65
2021/06/27 13:08:18;;;;;;;2.78;1.00;;;30.30;21.60;;;;;;20669483;28;20057;-62
2021/06/27 13:18:21;;;;;;;2.85;0.85;;;30.30;21.50;;;;;;20670133;28;20411;-64
2021/06/27 13:28:26;;;;;;;5.75;1.80;;;30.40;21.60;;;;;;20669750;28;20097;-64
2021/06/27 13:38:28;;;;;;;2.55;1.15;;;30.60;22.00;;;;;;20668559;28;20130;-64
2021/06/27 13:48:30;;;;;;;4.93;1.45;;;30.60;21.90;;;;;;20668304;28;20050;-64
2021/06/27 13:58:32;;;;;;;3.42;1.08;;;30.60;22.80;;;;;;20667554;28;20057;-65
2021/06/27 14:08:34;;;;;;;4.60;1.55;;;30.60;22.30;;;;;;20666758;28;20553;-65
2021/06/27 14:18:36;;;;;;;1.10;0.80;;;30.60;22.50;;;;;;20672911;28;20108;-63
2021/06/27 14:28:39;;;;;;;2.33;0.90;;;30.60;22.10;;;;;;20665554;28;20487;-64
2021/06/27 14:38:40;;;;;;;2.10;0.80;;;30.70;22.00;;;;;;20682050;28;20376;-64
2021/06/27 14:48:42;;;;;;;2.58;0.70;;;30.70;22.00;;;;;;20681088;28;20054;-64
2021/06/27 14:58:43;;;;;;;1.73;0.95;;;30.70;21.60;;;;;;20681159;28;20543;-63
2021/06/27 15:08:45;;;;;;;4.07;2.60;;;30.60;21.90;;;;;;20680705;28;20046;-63
2021/06/27 15:18:48;;;;;;;4.05;2.53;;;30.60;21.60;;;;;;20680213;28;20075;-67
2021/06/27 15:28:50;;;;;;;4.75;1.20;;;30.80;21.50;;;;;;20682994;28;20093;-68
2021/06/27 15:38:51;;;;;;;2.03;1.40;;;30.90;21.60;;;;;;20700181;28;20058;-64
2021/06/27 15:48:53;;;;;;;5.70;4.75;;;30.70;22.10;;;;;;20677649;28;20492;-62
2021/06/27 15:58:57;;;;;;;5.40;2.38;;;30.60;22.20;;;;;;20660176;28;20058;-62
2021/06/27 16:08:59;;;;;;;5.63;3.35;;;30.60;21.20;;;;;;20657743;28;20065;-62
2021/06/27 16:19:04;;;;;;;3.58;2.50;;;30.30;22.20;;;;;;20674409;28;20046;-60
2021/06/27 16:29:06;;;;;;;3.90;3.08;;;30.20;23.40;;;;;;20673772;28;20050;-65
2021/06/27 16:39:08;;;;;;;3.33;2.28;;;30.20;23.60;;;;;;20672308;28;20055;-65
2021/06/27 16:49:09;;;;;;;3.20;2.60;;;30.10;23.60;;;;;;20671910;28;20192;-62
2021/06/27 16:59:11;;;;;;;5.70;4.72;;;30.20;24.10;;;;;;20671913;28;20434;-66
2021/06/27 17:09:13;;;;;;;3.72;2.20;;;30.10;24.80;;;;;;20670355;28;20061;-61
2021/06/27 17:19:16;;;;;;;4.13;1.63;;;30.00;25.20;;;;;;20651839;28;20047;-64
2021/06/27 17:29:18;;;;;;;3.25;2.13;;;29.80;24.80;;;;;;20668697;28;20050;-63
2021/06/27 17:39:20;;;;;;;4.45;2.25;;;29.70;25.00;;;;;;20667920;28;20058;-63
2021/06/27 17:49:22;;;;;;;2.75;1.50;;;29.60;25.10;;;;;;20650194;28;20093;-61
2021/06/27 17:59:24;;;;;;;4.97;1.50;;;29.50;25.00;;;;;;20668208;28;20049;-65
2021/06/27 18:09:25;;;;;;;5.00;2.95;;;29.40;25.80;;;;;;20666795;28;20399;-61
2021/06/27 18:19:27;;;;;;;5.80;2.63;;;29.30;26.00;;;;;;20665874;28;20414;-62
2021/06/27 18:29:29;;;;;;;4.07;1.98;;;29.10;26.60;;;;;;20665676;28;20058;-61
2021/06/27 18:39:32;;;;;;;6.22;1.83;;;29.10;26.90;;;;;;20664939;28;20042;-64
2021/06/27 18:49:33;;;;;;;4.93;2.42;;;28.90;27.20;;;;;;20665392;28;20066;-66
2021/06/27 18:59:35;;;;;;;3.42;2.70;;;28.70;27.60;;;;;;20664411;28;20117;-62
2021/06/27 19:09:38;;;;;;;3.65;2.60;;;28.50;28.00;;;;;;20675711;28;20050;-62
2021/06/27 19:19:39;;;;;;;5.20;4.00;;;28.10;28.70;;;;;;20683082;28;20053;-63
2021/06/27 19:29:41;;;;;;;2.90;2.10;;;28.10;29.30;;;;;;20680743;28;20050;-65
2021/06/27 19:39:43;;;;;;;3.78;2.55;;;27.90;30.10;;;;;;20677579;28;20054;-61
2021/06/27 19:49:45;;;;;;;2.72;2.03;;;27.60;30.80;;;;;;20678143;28;20550;-62
2021/06/27 19:59:46;;;;;;;8.02;2.20;;;27.50;30.90;;;;;;20677474;28;20479;-64
2021/06/27 20:09:48;;;;;;;2.75;2.22;;;27.20;31.20;;;;;;20678895;28;20046;-62
2021/06/27 20:19:49;;;;;;;2.97;1.58;;;27.10;31.70;;;;;;20675242;28;20073;-64
2021/06/27 20:29:52;;;;;;;1.73;1.20;;;27.00;31.80;;;;;;20673553;28;20046;-65
2021/06/27 20:39:53;;;;;;;2.53;0.90;;;26.70;31.80;;;;;;20672755;28;20042;-62
2021/06/27 20:49:55;;;;;;;2.20;0.88;;;26.50;31.60;;;;;;20672870;28;20051;-61
2021/06/27 20:59:57;;;;;;;3.90;1.92;;;26.10;31.40;;;;;;20671548;28;20047;-61
2021/06/27 21:09:59;;;;;;;2.72;1.08;;;25.90;31.70;;;;;;20671284;28;20391;-66
2021/06/27 21:20:01;;;;;;;1.60;0.80;;;25.60;31.60;;;;;;20670722;28;20050;-62
2021/06/27 21:30:04;;;;;;;1.80;1.00;;;25.40;31.60;;;;;;20668983;28;20070;-65
2021/06/27 21:40:07;;;;;;;3.63;1.45;;;25.30;31.70;;;;;;20668534;28;20042;-61
2021/06/27 21:50:11;;;;;;;3.75;0.80;;;25.10;32.10;;;;;;20668181;28;20502;-62
2021/06/27 22:00:17;;;;;;;1.70;0.80;;;24.90;32.40;;;;;;20667895;28;20046;-62
2021/06/27 22:10:19;;;;;;;3.10;0.90;;;24.70;32.80;;;;;;20649759;28;20061;-61
2021/06/27 22:20:20;;;;;;;3.88;1.60;;;24.60;33.30;;;;;;20666223;28;20499;-62
2021/06/27 22:30:24;;;;;;;3.08;1.30;;;24.30;33.90;;;;;;20666047;28;20057;-60
2021/06/27 22:40:26;;;;;;;7.47;3.38;;;24.20;34.40;;;;;;20671195;28;20042;-61
2021/06/27 22:50:27;;;;;;;2.00;1.10;;;24.10;34.90;;;;;;20682199;28;20078;-63
2021/06/27 23:00:29;;;;;;;2.37;1.20;;;23.90;34.80;;;;;;20680743;28;20129;-66
2021/06/27 23:10:30;;;;;;;1.27;0.90;;;23.70;35.00;;;;;;20680349;28;20088;-61
2021/06/27 23:20:32;;;;;;;1.73;0.90;;;23.60;35.40;;;;;;20679563;28;20109;-59
2021/06/27 23:30:36;;;;;;;3.40;0.90;;;23.40;34.60;;;;;;20678855;28;20046;-64
2021/06/27 23:40:38;;;;;;;1.50;1.00;;;23.30;34.40;;;;;;20677268;28;20292;-59
2021/06/27 23:50:40;;;;;;;1.50;1.00;;;23.20;34.00;;;;;;20675548;28;20058;-62
